sensor_id;sensor_type;location;lat;lon;timestamp;pressure;altitude;pressure_sealevel;temperature;humidity
59513;BME280;45330;51.634;5.562;2023-03-03T00:00:11;102324.56;;;-0.29;100.00
59513;BME280;45330;51.634;5.562;2023-03-03T00:02:37;102333.09;;;-0.28;100.00
59513;BME280;45330;51.634;5.562;2023-03-03T00:05:02;102354.25;;;-0.18;100.00
59513;BME280;45330;51.634;5.562;2023-03-03T00:07:28;102333.81;;;-0.31;100.00
59513;BME280;45330;51.634;5.562;2023-03-03T00:09:53;102345.38;;;-0.23;100.00
59513;BME280;45330;51.634;5.562;2023-03-03T00:12:24;102361.91;;;-0.04;100.00
59513;BME280;45330;51.634;5.562;2023-03-03T00:14:50;102345.09;;;-0.14;100.00
59513;BME280;45330;51.634;5.562;2023-03-03T00:17:21;102368.25;;;0.03;100.00
59513;BME280;45330;51.634;5.562;2023-03-03T00:19:47;102357.47;;;-0.07;100.00
59513;BME280;45330;51.634;5.562;2023-03-03T00:22:28;102367.28;;;0.01;100.00
59513;BME280;45330;51.634;5.562;2023-03-03T00:24:54;102342.03;;;-0.08;100.00
59513;BME280;45330;51.634;5.562;2023-03-03T00:27:34;102362.09;;;-0.01;100.00
59513;BME280;45330;51.634;5.562;2023-03-03T00:30:02;102370.41;;;0.10;100.00
59513;BME280;45330;51.634;5.562;2023-03-03T00:32:44;102350.16;;;-0.01;100.00
59513;BME280;45330;51.634;5.562;2023-03-03T00:35:29;102377.09;;;0.21;100.00
59513;BME280;45330;51.634;5.562;2023-03-03T00:38:01;102375.22;;;0.19;100.00
59513;BME280;45330;51.634;5.562;2023-03-03T00:40:33;102361.94;;;0.11;100.00
59513;BME280;45330;51.634;5.562;2023-03-03T00:42:59;102355.03;;;0.10;100.00
59513;BME280;45330;51.634;5.562;2023-03-03T00:47:51;102361.44;;;0.16;100.00
59513;BME280;45330;51.634;5.562;2023-03-03T00:50:25;102367.13;;;0.26;100.00
59513;BME280;45330;51.634;5.562;2023-03-03T00:53:15;102374.72;;;0.24;100.00
59513;BME280;45330;51.634;5.562;2023-03-03T00:55:45;102357.59;;;0.10;100.00
59513;BME280;45330;51.634;5.562;2023-03-03T01:21:10;102393.13;;;-0.10;100.00
59513;BME280;45330;51.634;5.562;2023-03-03T01:23:35;102400.16;;;-0.06;100.00
59513;BME280;45330;51.634;5.562;2023-03-03T01:26:01;102398.59;;;-0.04;100.00
59513;BME280;45330;51.634;5.562;2023-03-03T01:28:26;102372.19;;;-0.31;100.00
59513;BME280;45330;51.634;5.562;2023-03-03T01:30:52;102408.38;;;-0.25;100.00
59513;BME280;45330;51.634;5.562;2023-03-03T01:33:17;102408.47;;;-0.23;100.00
59513;BME280;45330;51.634;5.562;2023-03-03T01:35:44;102401.19;;;-0.30;100.00
59513;BME280;45330;51.634;5.562;2023-03-03T01:38:10;102378.56;;;-0.38;100.00
59513;BME280;45330;51.634;5.562;2023-03-03T01:40:35;102391.06;;;-0.29;100.00
59513;BME280;45330;51.634;5.562;2023-03-03T01:43:00;102402.88;;;-0.31;100.00
59513;BME280;45330;51.634;5.562;2023-03-03T01:45:28;102386.66;;;-0.45;100.00
59513;BME280;45330;51.634;5.562;2023-03-03T01:48:04;102404.44;;;-0.33;100.00
59513;BME280;45330;51.634;5.562;2023-03-03T01:53:19;102389.09;;;-0.60;100.00
59513;BME280;45330;51.634;5.562;2023-03-03T01:55:46;102406.69;;;-0.51;100.00
59513;BME280;45330;51.634;5.562;2023-03-03T01:58:18;102400.53;;;-0.55;100.00
59513;BME280;45330;51.634;5.562;2023-03-03T02:00:51;102387.13;;;-0.64;100.00
59513;BME280;45330;51.634;5.562;2023-03-03T02:03:19;102407.38;;;-0.54;100.00
59513;BME280;45330;51.634;5.562;2023-03-03T02:05:47;102408.97;;;-0.56;100.00
59513;BME280;45330;51.634;5.562;2023-03-03T02:08:18;102402.50;;;-0.50;100.00
59513;BME280;45330;51.634;5.562;2023-03-03T02:10:45;102397.63;;;-0.59;100.00
59513;BME280;45330;51.634;5.562;2023-03-03T02:13:10;102402.84;;;-0.58;100.00
59513;BME280;45330;51.634;5.562;2023-03-03T02:15:36;102410.16;;;-0.50;100.00
59513;BME280;45330;51.634;5.562;2023-03-03T02:18:05;102386.44;;;-0.61;100.00
59513;BME280;45330;51.634;5.562;2023-03-03T02:20:35;102405.25;;;-0.47;100.00
59513;BME280;45330;51.634;5.562;2023-03-03T02:26:02;102388.22;;;-0.60;100.00
59513;BME280;45330;51.634;5.562;2023-03-03T02:28:30;102407.19;;;-0.43;100.00
59513;BME280;45330;51.634;5.562;2023-03-03T02:30:58;102397.63;;;-0.59;100.00
59513;BME280;45330;51.634;5.562;2023-03-03T02:33:24;102390.88;;;-0.59;100.00
59513;BME280;45330;51.634;5.562;2023-03-03T02:35:50;102404.47;;;-0.46;100.00
59513;BME280;45330;51.634;5.562;2023-03-03T02:38:22;102398.34;;;-0.48;100.00
59513;BME280;45330;51.634;5.562;2023-03-03T02:43:25;102394.41;;;-0.43;100.00
59513;BME280;45330;51.634;5.562;2023-03-03T02:45:53;102394.41;;;-0.43;100.00
59513;BME280;45330;51.634;5.562;2023-03-03T02:48:18;102382.22;;;-0.47;100.00
59513;BME280;45330;51.634;5.562;2023-03-03T02:50:44;102416.03;;;-0.38;100.00
59513;BME280;45330;51.634;5.562;2023-03-03T02:53:09;102362.56;;;-0.62;100.00
59513;BME280;45330;51.634;5.562;2023-03-03T02:55:35;102388.31;;;-0.45;100.00
59513;BME280;45330;51.634;5.562;2023-03-03T02:58:00;102391.84;;;-0.43;100.00
59513;BME280;45330;51.634;5.562;2023-03-03T03:00:25;102395.38;;;-0.41;100.00
59513;BME280;45330;51.634;5.562;2023-03-03T03:02:51;102377.09;;;-0.47;100.00
59513;BME280;45330;51.634;5.562;2023-03-03T03:05:16;102385.25;;;-0.40;100.00
59513;BME280;45330;51.634;5.562;2023-03-03T03:07:41;102400.09;;;-0.34;100.00
59513;BME280;45330;51.634;5.562;2023-03-03T03:10:07;102381.63;;;-0.43;100.00
59513;BME280;45330;51.634;5.562;2023-03-03T03:12:33;102375.59;;;-0.44;100.00
59513;BME280;45330;51.634;5.562;2023-03-03T03:14:58;102400.78;;;-0.37;100.00
59513;BME280;45330;51.634;5.562;2023-03-03T03:17:25;102400.31;;;-0.44;100.00
59513;BME280;45330;51.634;5.562;2023-03-03T03:19:50;102405.44;;;-0.44;100.00
59513;BME280;45330;51.634;5.562;2023-03-03T03:22:15;102411.41;;;-0.44;100.00
59513;BME280;45330;51.634;5.562;2023-03-03T03:24:41;102403.06;;;-0.55;100.00
59513;BME280;45330;51.634;5.562;2023-03-03T03:27:07;102401.69;;;-0.63;100.00
59513;BME280;45330;51.634;5.562;2023-03-03T03:29:33;102398.44;;;-0.74;100.00
59513;BME280;45330;51.634;5.562;2023-03-03T03:31:58;102426.00;;;-0.56;100.00
59513;BME280;45330;51.634;5.562;2023-03-03T03:34:23;102402.66;;;-0.74;100.00
59513;BME280;45330;51.634;5.562;2023-03-03T03:36:49;102419.41;;;-0.66;100.00
59513;BME280;45330;51.634;5.562;2023-03-03T03:39:14;102420.06;;;-0.68;100.00
59513;BME280;45330;51.634;5.562;2023-03-03T03:41:40;102416.84;;;-0.66;100.00
59513;BME280;45330;51.634;5.562;2023-03-03T03:44:05;102395.69;;;-0.77;100.00
59513;BME280;45330;51.634;5.562;2023-03-03T03:46:30;102407.56;;;-0.64;100.00
59513;BME280;45330;51.634;5.562;2023-03-03T03:48:56;102412.88;;;-0.61;100.00
59513;BME280;45330;51.634;5.562;2023-03-03T03:51:21;102414.66;;;-0.60;100.00
59513;BME280;45330;51.634;5.562;2023-03-03T03:53:46;102427.75;;;-0.55;100.00
59513;BME280;45330;51.634;5.562;2023-03-03T03:56:12;102422.94;;;-0.50;100.00
59513;BME280;45330;51.634;5.562;2023-03-03T03:58:40;102420.16;;;-0.54;100.00
59513;BME280;45330;51.634;5.562;2023-03-03T04:01:06;102415.06;;;-0.54;100.00
59513;BME280;45330;51.634;5.562;2023-03-03T04:03:32;102408.97;;;-0.56;100.00
59513;BME280;45330;51.634;5.562;2023-03-03T04:05:58;102426.56;;;-0.47;100.00
59513;BME280;45330;51.634;5.562;2023-03-03T04:08:23;102420.97;;;-0.55;100.00
59513;BME280;45330;51.634;5.562;2023-03-03T04:10:48;102424.91;;;-0.46;100.00
59513;BME280;45330;51.634;5.562;2023-03-03T04:13:14;102400.28;;;-0.58;100.00
59513;BME280;45330;51.634;5.562;2023-03-03T04:15:40;102413.00;;;-0.46;100.00
59513;BME280;45330;51.634;5.562;2023-03-03T04:18:05;102419.59;;;-0.36;100.00
59513;BME280;45330;51.634;5.562;2023-03-03T04:20:31;102391.16;;;-0.54;100.00
59513;BME280;45330;51.634;5.562;2023-03-03T04:22:56;102406.09;;;-0.47;100.00
59513;BME280;45330;51.634;5.562;2023-03-03T04:25:22;102427.56;;;-0.31;100.00
59513;BME280;45330;51.634;5.562;2023-03-03T04:27:47;102398.72;;;-0.42;100.00
59513;BME280;45330;51.634;5.562;2023-03-03T04:30:14;102409.06;;;-0.41;100.00
59513;BME280;45330;51.634;5.562;2023-03-03T04:32:40;102415.16;;;-0.39;100.00
59513;BME280;45330;51.634;5.562;2023-03-03T04:35:06;102431.31;;;-0.26;100.00
59513;BME280;45330;51.634;5.562;2023-03-03T04:37:32;102426.97;;;-0.27;100.00
59513;BME280;45330;51.634;5.562;2023-03-03T04:39:58;102418.22;;;-0.31;100.00
59513;BME280;45330;51.634;5.562;2023-03-03T04:42:23;102416.53;;;-0.30;100.00
59513;BME280;45330;51.634;5.562;2023-03-03T04:44:49;102426.47;;;-0.22;100.00
59513;BME280;45330;51.634;5.562;2023-03-03T04:47:14;102427.47;;;-0.20;100.00
59513;BME280;45330;51.634;5.562;2023-03-03T04:49:39;102413.47;;;-0.25;100.00
59513;BME280;45330;51.634;5.562;2023-03-03T04:52:05;102426.38;;;-0.23;100.00
59513;BME280;45330;51.634;5.562;2023-03-03T04:54:30;102421.44;;;-0.20;100.00
59513;BME280;45330;51.634;5.562;2023-03-03T04:56:56;102430.31;;;-0.15;100.00
59513;BME280;45330;51.634;5.562;2023-03-03T04:59:22;102428.63;;;-0.14;100.00
59513;BME280;45330;51.634;5.562;2023-03-03T05:01:48;102418.78;;;-0.22;100.00
59513;BME280;45330;51.634;5.562;2023-03-03T05:04:15;102416.50;;;-0.17;100.00
59513;BME280;45330;51.634;5.562;2023-03-03T05:06:40;102431.69;;;-0.07;100.00
59513;BME280;45330;51.634;5.562;2023-03-03T05:09:06;102424.97;;;-0.05;100.00
59513;BME280;45330;51.634;5.562;2023-03-03T05:11:31;102422.91;;;-0.10;100.00
59513;BME280;45330;51.634;5.562;2023-03-03T05:13:57;102440.63;;;0.00;100.00
59513;BME280;45330;51.634;5.562;2023-03-03T05:16:22;102441.69;;;0.04;100.00
59513;BME280;45330;51.634;5.562;2023-03-03T05:18:47;102432.16;;;0.01;100.00
59513;BME280;45330;51.634;5.562;2023-03-03T05:21:13;102423.31;;;-0.04;100.00
59513;BME280;45330;51.634;5.562;2023-03-03T05:23:39;102426.44;;;0.05;100.00
59513;BME280;45330;51.634;5.562;2023-03-03T05:26:04;102440.50;;;0.12;100.00
59513;BME280;45330;51.634;5.562;2023-03-03T05:28:31;102437.75;;;0.09;100.00
59513;BME280;45330;51.634;5.562;2023-03-03T05:30:56;102438.72;;;0.11;100.00
59513;BME280;45330;51.634;5.562;2023-03-03T05:33:21;102438.81;;;0.12;100.00
59513;BME280;45330;51.634;5.562;2023-03-03T05:35:47;102441.56;;;0.15;100.00
59513;BME280;45330;51.634;5.562;2023-03-03T05:38:17;102443.16;;;0.13;100.00
59513;BME280;45330;51.634;5.562;2023-03-03T05:40:42;102443.34;;;0.16;100.00
59513;BME280;45330;51.634;5.562;2023-03-03T05:43:08;102420.63;;;0.08;100.00
59513;BME280;45330;51.634;5.562;2023-03-03T05:45:34;102423.19;;;0.08;100.00
59513;BME280;45330;51.634;5.562;2023-03-03T05:47:59;102420.22;;;0.15;100.00
59513;BME280;45330;51.634;5.562;2023-03-03T05:50:24;102442.94;;;0.24;100.00
59513;BME280;45330;51.634;5.562;2023-03-03T05:52:50;102441.09;;;0.21;100.00
59513;BME280;45330;51.634;5.562;2023-03-03T05:55:17;102437.72;;;0.22;100.00
59513;BME280;45330;51.634;5.562;2023-03-03T05:57:42;102441.19;;;0.23;100.00
59513;BME280;45330;51.634;5.562;2023-03-03T06:00:09;102426.03;;;0.12;100.00
59513;BME280;45330;51.634;5.562;2023-03-03T06:02:34;102447.34;;;0.26;100.00
59513;BME280;45330;51.634;5.562;2023-03-03T06:05:00;102445.78;;;0.28;100.00
59513;BME280;45330;51.634;5.562;2023-03-03T06:07:25;102451.97;;;0.32;100.00
59513;BME280;45330;51.634;5.562;2023-03-03T06:09:51;102452.06;;;0.33;100.00
59513;BME280;45330;51.634;5.562;2023-03-03T06:12:16;102437.72;;;0.22;100.00
59513;BME280;45330;51.634;5.562;2023-03-03T06:14:41;102460.75;;;0.36;100.00
59513;BME280;45330;51.634;5.562;2023-03-03T06:17:07;102454.53;;;0.32;100.00
59513;BME280;45330;51.634;5.562;2023-03-03T06:19:32;102466.91;;;0.39;100.00
59513;BME280;45330;51.634;5.562;2023-03-03T06:21:58;102446.56;;;0.27;100.00
59513;BME280;45330;51.634;5.562;2023-03-03T06:24:23;102466.84;;;0.38;100.00
59513;BME280;45330;51.634;5.562;2023-03-03T06:26:51;102450.00;;;0.28;100.00
59513;BME280;45330;51.634;5.562;2023-03-03T06:29:16;102477.56;;;0.45;100.00
59513;BME280;45330;51.634;5.562;2023-03-03T06:31:42;102461.63;;;0.36;100.00
59513;BME280;45330;51.634;5.562;2023-03-03T06:34:07;102485.44;;;0.48;100.00
59513;BME280;45330;51.634;5.562;2023-03-03T06:36:33;102492.31;;;0.49;100.00
59513;BME280;45330;51.634;5.562;2023-03-03T06:38:58;102491.72;;;0.54;100.00
59513;BME280;45330;51.634;5.562;2023-03-03T06:41:25;102486.38;;;0.50;100.00
59513;BME280;45330;51.634;5.562;2023-03-03T06:43:50;102485.16;;;0.44;100.00
59513;BME280;45330;51.634;5.562;2023-03-03T06:46:15;102485.25;;;0.45;100.00
59513;BME280;45330;51.634;5.562;2023-03-03T06:48:41;102505.59;;;0.57;100.00
59513;BME280;45330;51.634;5.562;2023-03-03T06:51:21;102510.81;;;0.59;100.00
59513;BME280;45330;51.634;5.562;2023-03-03T06:53:50;102500.97;;;0.51;100.00
59513;BME280;45330;51.634;5.562;2023-03-03T06:56:17;102508.06;;;0.56;100.00
59513;BME280;45330;51.634;5.562;2023-03-03T06:58:42;102507.47;;;0.60;100.00
59513;BME280;45330;51.634;5.562;2023-03-03T07:01:15;102487.47;;;0.54;100.00
59513;BME280;45330;51.634;5.562;2023-03-03T07:03:40;102491.91;;;0.57;100.00
59513;BME280;45330;51.634;5.562;2023-03-03T07:06:15;102494.56;;;0.58;100.00
59513;BME280;45330;51.634;5.562;2023-03-03T07:08:42;102497.91;;;0.57;100.00
59513;BME280;45330;51.634;5.562;2023-03-03T07:11:11;102497.41;;;0.63;100.00
59513;BME280;45330;51.634;5.562;2023-03-03T07:13:44;102503.88;;;0.71;100.00
59513;BME280;45330;51.634;5.562;2023-03-03T07:16:12;102514.22;;;0.73;100.00
59513;BME280;45330;51.634;5.562;2023-03-03T07:18:52;102520.44;;;0.76;100.00
59513;BME280;45330;51.634;5.562;2023-03-03T07:21:24;102505.16;;;0.78;100.00
59513;BME280;45330;51.634;5.562;2023-03-03T07:23:52;102502.06;;;0.83;100.00
59513;BME280;45330;51.634;5.562;2023-03-03T07:26:20;102528.44;;;0.96;100.00
59513;BME280;45330;51.634;5.562;2023-03-03T07:29:18;102528.53;;;0.97;100.00
59513;BME280;45330;51.634;5.562;2023-03-03T07:31:46;102513.19;;;0.84;100.00
59513;BME280;45330;51.634;5.562;2023-03-03T07:36:57;102533.38;;;0.93;100.00
59513;BME280;45330;51.634;5.562;2023-03-03T07:42:14;102535.66;;;0.88;100.00
59513;BME280;45330;51.634;5.562;2023-03-03T07:44:41;102538.91;;;0.85;100.00
59513;BME280;45330;51.634;5.562;2023-03-03T07:47:28;102549.31;;;1.02;100.00
59513;BME280;45330;51.634;5.562;2023-03-03T07:49:56;102553.16;;;0.95;100.00
59513;BME280;45330;51.634;5.562;2023-03-03T07:52:27;102555.22;;;1.01;100.00
59513;BME280;45330;51.634;5.562;2023-03-03T07:54:55;102537.53;;;0.91;100.00
59513;BME280;45330;51.634;5.562;2023-03-03T07:57:25;102562.22;;;1.03;100.00
59513;BME280;45330;51.634;5.562;2023-03-03T08:00:01;102564.78;;;1.03;100.00
59513;BME280;45330;51.634;5.562;2023-03-03T08:04:55;102558.38;;;0.97;100.00
59513;BME280;45330;51.634;5.562;2023-03-03T08:07:21;102565.47;;;1.01;100.00
59513;BME280;45330;51.634;5.562;2023-03-03T08:09:59;102568.44;;;1.07;100.00
59513;BME280;45330;51.634;5.562;2023-03-03T08:12:38;102564.78;;;1.03;100.00
59513;BME280;45330;51.634;5.562;2023-03-03T08:15:27;102542.22;;;0.98;100.00
59513;BME280;45330;51.634;5.562;2023-03-03T08:17:55;102569.78;;;1.15;100.00
59513;BME280;45330;51.634;5.562;2023-03-03T08:23:08;102549.44;;;1.18;100.00
59513;BME280;45330;51.634;5.562;2023-03-03T08:25:34;102576.63;;;1.45;100.00
59513;BME280;45330;51.634;5.562;2023-03-03T08:27:59;102577.00;;;1.51;100.00
59513;BME280;45330;51.634;5.562;2023-03-03T08:30:25;102562.28;;;1.33;100.00
59513;BME280;45330;51.634;5.562;2023-03-03T08:32:50;102561.66;;;1.23;100.00
59513;BME280;45330;51.634;5.562;2023-03-03T08:35:15;102589.44;;;1.30;100.00
59513;BME280;45330;51.634;5.562;2023-03-03T08:37:41;102588.84;;;1.34;100.00
59513;BME280;45330;51.634;5.562;2023-03-03T08:40:07;102600.16;;;1.37;100.00
59513;BME280;45330;51.634;5.562;2023-03-03T08:42:32;102596.19;;;1.43;100.00
59513;BME280;45330;51.634;5.562;2023-03-03T08:44:58;102593.88;;;1.47;100.00
59513;BME280;45330;51.634;5.562;2023-03-03T08:47:23;102578.06;;;1.40;100.00
59513;BME280;45330;51.634;5.562;2023-03-03T08:49:48;102603.53;;;1.51;100.00
59513;BME280;45330;51.634;5.562;2023-03-03T08:52:14;102599.84;;;1.46;100.00
59513;BME280;45330;51.634;5.562;2023-03-03T08:54:39;102580.22;;;1.33;100.00
59513;BME280;45330;51.634;5.562;2023-03-03T08:57:05;102600.19;;;1.52;100.00
59513;BME280;45330;51.634;5.562;2023-03-03T08:59:30;102581.88;;;1.61;100.00
59513;BME280;45330;51.634;5.562;2023-03-03T09:01:55;102596.59;;;1.79;100.00
59513;BME280;45330;51.634;5.562;2023-03-03T09:04:21;102604.91;;;1.89;100.00
59513;BME280;45330;51.634;5.562;2023-03-03T09:06:46;102600.66;;;1.90;100.00
59513;BME280;45330;51.634;5.562;2023-03-03T09:09:12;102618.25;;;1.84;100.00
59513;BME280;45330;51.634;5.562;2023-03-03T09:11:37;102612.97;;;1.96;100.00
59513;BME280;45330;51.634;5.562;2023-03-03T09:14:13;102604.44;;;1.97;100.00
59513;BME280;45330;51.634;5.562;2023-03-03T09:16:46;102603.31;;;2.06;100.00
59513;BME280;45330;51.634;5.562;2023-03-03T09:19:27;102585.34;;;1.92;100.00
59513;BME280;45330;51.634;5.562;2023-03-03T09:22:19;102601.19;;;1.99;100.00
59513;BME280;45330;51.634;5.562;2023-03-03T09:24:46;102611.63;;;2.17;100.00
59513;BME280;45330;51.634;5.562;2023-03-03T09:27:27;102599.81;;;2.36;100.00
59513;BME280;45330;51.634;5.562;2023-03-03T09:29:53;102597.69;;;2.29;100.00
59513;BME280;45330;51.634;5.562;2023-03-03T09:32:36;102617.00;;;2.37;100.00
59513;BME280;45330;51.634;5.562;2023-03-03T09:35:38;102609.38;;;2.53;100.00
59513;BME280;45330;51.634;5.562;2023-03-03T09:41:05;102602.28;;;2.49;100.00
59513;BME280;45330;51.634;5.562;2023-03-03T09:51:51;102620.19;;;2.79;100.00
59513;BME280;45330;51.634;5.562;2023-03-03T09:57:17;102615.06;;;2.96;100.00
59513;BME280;45330;51.634;5.562;2023-03-03T10:03:02;102617.88;;;3.00;100.00
59513;BME280;45330;51.634;5.562;2023-03-03T10:08:40;102628.41;;;2.88;100.00
59513;BME280;45330;51.634;5.562;2023-03-03T10:32:41;102622.38;;;3.37;100.00
59513;BME280;45330;51.634;5.562;2023-03-03T10:40:53;102637.69;;;3.67;100.00
59513;BME280;45330;51.634;5.562;2023-03-03T10:43:44;102613.59;;;3.67;100.00
59513;BME280;45330;51.634;5.562;2023-03-03T10:46:38;102617.28;;;3.88;100.00
59513;BME280;45330;51.634;5.562;2023-03-03T10:57:20;102623.84;;;4.18;100.00
59513;BME280;45330;51.634;5.562;2023-03-03T11:05:46;102601.97;;;4.45;100.00
59513;BME280;45330;51.634;5.562;2023-03-03T11:08:20;102629.22;;;4.58;100.00
59513;BME280;45330;51.634;5.562;2023-03-03T11:10:59;102638.38;;;4.34;100.00
59513;BME280;45330;51.634;5.562;2023-03-03T11:13:56;102614.28;;;4.51;100.00
59513;BME280;45330;51.634;5.562;2023-03-03T11:32:48;102607.06;;;4.44;100.00
59513;BME280;45330;51.634;5.562;2023-03-03T11:41:19;102579.81;;;4.13;100.00
59513;BME280;45330;51.634;5.562;2023-03-03T11:43:53;102585.28;;;4.19;100.00
59513;BME280;45330;51.634;5.562;2023-03-03T11:49:05;102610.81;;;4.15;100.00
59513;BME280;45330;51.634;5.562;2023-03-03T11:55:29;102578.50;;;4.03;100.00
59513;BME280;45330;51.634;5.562;2023-03-03T11:57:52;102594.44;;;4.31;100.00
59513;BME280;45330;51.634;5.562;2023-03-03T12:00:40;102586.44;;;4.26;100.00
59513;BME280;45330;51.634;5.562;2023-03-03T12:09:12;102593.00;;;4.55;100.00
59513;BME280;45330;51.634;5.562;2023-03-03T12:15:05;102589.13;;;5.42;100.00
59513;BME280;45330;51.634;5.562;2023-03-03T12:17:59;102584.63;;;5.57;100.00
59513;BME280;45330;51.634;5.562;2023-03-03T12:26:00;102561.19;;;5.53;100.00
59513;BME280;45330;51.634;5.562;2023-03-03T12:28:54;102579.00;;;5.46;100.00
59513;BME280;45330;51.634;5.562;2023-03-03T12:31:33;102577.91;;;5.22;100.00
59513;BME280;45330;51.634;5.562;2023-03-03T12:37:08;102576.38;;;5.06;100.00
59513;BME280;45330;51.634;5.562;2023-03-03T12:47:39;102566.59;;;5.18;100.00
59513;BME280;45330;51.634;5.562;2023-03-03T13:03:52;102547.91;;;5.24;100.00
59513;BME280;45330;51.634;5.562;2023-03-03T13:06:31;102530.72;;;5.24;100.00
59513;BME280;45330;51.634;5.562;2023-03-03T13:09:10;102540.03;;;5.61;100.00
59513;BME280;45330;51.634;5.562;2023-03-03T13:27:52;102520.00;;;5.77;100.00
59513;BME280;45330;51.634;5.562;2023-03-03T13:30:29;102515.47;;;5.92;100.00
59513;BME280;45330;51.634;5.562;2023-03-03T13:33:23;102526.38;;;6.06;100.00
59513;BME280;45330;51.634;5.562;2023-03-03T13:36:02;102520.97;;;6.23;100.00
59513;BME280;45330;51.634;5.562;2023-03-03T13:38:34;102523.88;;;6.30;100.00
59513;BME280;45330;51.634;5.562;2023-03-03T13:44:01;102524.69;;;6.52;100.00
59513;BME280;45330;51.634;5.562;2023-03-03T13:49:28;102513.38;;;6.73;100.00
59513;BME280;45330;51.634;5.562;2023-03-03T13:52:07;102508.41;;;6.79;100.00
59513;BME280;45330;51.634;5.562;2023-03-03T14:03:43;102494.50;;;6.99;100.00
59513;BME280;45330;51.634;5.562;2023-03-03T14:06:17;102510.81;;;7.22;100.00
59513;BME280;45330;51.634;5.562;2023-03-03T14:14:06;102514.59;;;7.32;100.00
59513;BME280;45330;51.634;5.562;2023-03-03T14:19:20;102507.25;;;7.19;98.63
59513;BME280;45330;51.634;5.562;2023-03-03T14:22:17;102492.34;;;7.12;100.00
59513;BME280;45330;51.634;5.562;2023-03-03T14:25:08;102483.34;;;7.26;98.50
59513;BME280;45330;51.634;5.562;2023-03-03T14:27:35;102499.50;;;7.45;95.19
59513;BME280;45330;51.634;5.562;2023-03-03T14:32:58;102499.94;;;7.31;94.39
59513;BME280;45330;51.634;5.562;2023-03-03T14:35:29;102499.78;;;7.28;93.15
59513;BME280;45330;51.634;5.562;2023-03-03T14:38:00;102500.13;;;7.37;91.87
59513;BME280;45330;51.634;5.562;2023-03-03T14:40:32;102496.22;;;7.50;89.61
59513;BME280;45330;51.634;5.562;2023-03-03T14:43:00;102493.59;;;7.49;85.34
59513;BME280;45330;51.634;5.562;2023-03-03T14:45:39;102502.84;;;7.42;86.60
59513;BME280;45330;51.634;5.562;2023-03-03T14:48:16;102492.97;;;7.30;88.62
59513;BME280;45330;51.634;5.562;2023-03-03T14:50:53;102495.13;;;7.18;89.04
59513;BME280;45330;51.634;5.562;2023-03-03T14:53:30;102491.00;;;6.99;87.90
59513;BME280;45330;51.634;5.562;2023-03-03T14:56:27;102488.53;;;6.78;89.69
59513;BME280;45330;51.634;5.562;2023-03-03T14:59:11;102484.81;;;6.69;91.58
59513;BME280;45330;51.634;5.562;2023-03-03T15:01:40;102483.88;;;6.67;92.36
59513;BME280;45330;51.634;5.562;2023-03-03T15:06:45;102454.47;;;6.90;91.74
59513;BME280;45330;51.634;5.562;2023-03-03T15:11:58;102473.41;;;7.38;85.34
59513;BME280;45330;51.634;5.562;2023-03-03T15:14:45;102463.59;;;7.55;88.84
59513;BME280;45330;51.634;5.562;2023-03-03T15:17:32;102456.69;;;7.56;87.42
59513;BME280;45330;51.634;5.562;2023-03-03T15:23:46;102461.78;;;7.53;86.83
59513;BME280;45330;51.634;5.562;2023-03-03T15:31:02;102427.25;;;7.27;88.41
59513;BME280;45330;51.634;5.562;2023-03-03T15:36:46;102451.84;;;7.39;87.15
59513;BME280;45330;51.634;5.562;2023-03-03T15:41:46;102430.25;;;7.39;84.40
59513;BME280;45330;51.634;5.562;2023-03-03T16:03:41;102441.63;;;6.93;86.99
59513;BME280;45330;51.634;5.562;2023-03-03T16:06:23;102425.19;;;6.66;87.83
59513;BME280;45330;51.634;5.562;2023-03-03T16:09:02;102438.13;;;6.66;87.91
59513;BME280;45330;51.634;5.562;2023-03-03T16:11:48;102431.88;;;6.60;89.87
59513;BME280;45330;51.634;5.562;2023-03-03T16:17:25;102435.53;;;6.66;90.99
59513;BME280;45330;51.634;5.562;2023-03-03T16:22:50;102440.22;;;6.77;91.94
59513;BME280;45330;51.634;5.562;2023-03-03T16:34:13;102441.56;;;6.65;91.71
59513;BME280;45330;51.634;5.562;2023-03-03T16:39:39;102452.31;;;6.53;92.40
59513;BME280;45330;51.634;5.562;2023-03-03T16:45:05;102452.66;;;6.39;97.25
59513;BME280;45330;51.634;5.562;2023-03-03T16:53:00;102468.16;;;6.16;100.00
59513;BME280;45330;51.634;5.562;2023-03-03T17:22:46;102496.25;;;5.03;100.00
59513;BME280;45330;51.634;5.562;2023-03-03T17:28:08;102497.19;;;4.85;100.00
59513;BME280;45330;51.634;5.562;2023-03-03T17:36:13;102502.50;;;4.69;100.00
59513;BME280;45330;51.634;5.562;2023-03-03T17:42:00;102492.03;;;4.46;100.00
59513;BME280;45330;51.634;5.562;2023-03-03T17:44:35;102511.47;;;4.57;100.00
59513;BME280;45330;51.634;5.562;2023-03-03T17:47:12;102514.84;;;4.56;100.00
59513;BME280;45330;51.634;5.562;2023-03-03T17:50:05;102517.34;;;4.55;100.00
59513;BME280;45330;51.634;5.562;2023-03-03T17:55:38;102522.81;;;4.43;100.00
59513;BME280;45330;51.634;5.562;2023-03-03T17:58:32;102525.38;;;4.43;100.00
59513;BME280;45330;51.634;5.562;2023-03-03T18:01:18;102537.34;;;4.41;100.00
59513;BME280;45330;51.634;5.562;2023-03-03T18:09:36;102542.22;;;4.35;100.00
59513;BME280;45330;51.634;5.562;2023-03-03T18:12:20;102544.88;;;4.36;100.00
59513;BME280;45330;51.634;5.562;2023-03-03T18:23:41;102552.44;;;4.33;100.00
59513;BME280;45330;51.634;5.562;2023-03-03T18:31:47;102544.34;;;4.25;100.00
59513;BME280;45330;51.634;5.562;2023-03-03T18:36:50;102560.41;;;4.38;100.00
59513;BME280;45330;51.634;5.562;2023-03-03T18:42:08;102556.72;;;4.33;100.00
59513;BME280;45330;51.634;5.562;2023-03-03T18:44:34;102567.81;;;4.32;100.00
59513;BME280;45330;51.634;5.562;2023-03-03T18:47:00;102569.47;;;4.29;100.00
59513;BME280;45330;51.634;5.562;2023-03-03T18:49:48;102567.75;;;4.30;100.00
59513;BME280;45330;51.634;5.562;2023-03-03T18:57:34;102567.75;;;4.30;100.00